Clayton, Washington
Current Conditions -  °F | °C
As of 5:53 AM on Monday 20 Oct 2014 (Local Time) from KDEW Reporting Station
Clear Clear  
Wind Chill: 42°   Ceiling: Unl
Heat Index: 42°   Visibility: 10mi
Dew Point: 41°   Wind: 0mph
Humidity: 96%   Direction: NA
Pressure: 29.75"   Gusts: NA
Location:  47.99°N, 117.56°W
Report Text: KDEW 201253Z AUTO 00000KT 10SM CLR 06/05 A2975 RMK AO2 SLP073 T00560050
Loading
Personal Weather Stations






























Interactive Weather Map
Tropical Storm Tracking
New forecast layout! Learn more

10-Day Weather Forecast

Advertisements
Track Severe Weather on mobile